Time;durP1;ratioP1;P1;durP2;ratioP2;P2;SDS_P1;SDS_P2;PMS_P1;PMS_P2;Temp;Humidity;BMP_temperature;BMP_pressure;BME280_temperature;BME280_humidity;BME280_pressure;Samples;Min_cycle;Max_cycle;Signal;HPM_P1;HPM_P2
2022/06/29 00:00:05;;;;;;;;;;;;;;;;;;5087452;28;19939;-90
2022/06/29 00:02:31;;;;;;;;;;;;;;;;;;5060619;28;20042;-89
2022/06/29 00:04:57;;;;;;;;;;;;;;;;;;5079499;28;19925;-90
2022/06/29 00:07:23;;;;;;;;;;;;;;;;;;5085284;28;19924;-89
2022/06/29 00:09:49;;;;;;;;;;;;;;;;;;5076231;28;19931;-90
2022/06/29 00:12:15;;;;;;;;;;;;;;;;;;5063113;28;19957;-90
2022/06/29 00:14:44;;;;;;;;;;;;;;;;;;5095429;28;19924;-90
2022/06/29 00:17:10;;;;;;;;;;;;;;;;;;5064164;28;20048;-91
2022/06/29 00:19:36;;;;;;;;;;;;;;;;;;5063707;28;19967;-89
2022/06/29 00:22:02;;;;;;;;;;;;;;;;;;5084950;28;19931;-90
2022/06/29 00:24:28;;;;;;;;;;;;;;;;;;5076100;28;19924;-88
2022/06/29 00:26:54;;;;;;;;;;;;;;;;;;5076380;28;19951;-89
2022/06/29 00:29:19;;;;;;;;;;;;;;;;;;5056142;28;19924;-89
2022/06/29 00:31:45;;;;;;;;;;;;;;;;;;5073435;28;19932;-89
2022/06/29 00:34:11;;;;;;;;;;;;;;;;;;5076473;28;20485;-90
2022/06/29 00:36:37;;;;;;;;;;;;;;;;;;5068885;28;19924;-88
2022/06/29 00:39:03;;;;;;;;;;;;;;;;;;5065088;28;19947;-90
2022/06/29 00:41:29;;;;;;;;;;;;;;;;;;5062702;28;19924;-89
2022/06/29 00:43:55;;;;;;;;;;;;;;;;;;5066007;28;19935;-89
2022/06/29 00:46:21;;;;;;;;;;;;;;;;;;5068723;28;19927;-89
2022/06/29 00:48:47;;;;;;;;;;;;;;;;;;5078785;28;20267;-88
2022/06/29 00:51:13;;;;;;;;;;;;;;;;;;5077076;28;20374;-90
2022/06/29 00:53:39;;;;;;;;;;;;;;;;;;5093873;28;20470;-90
2022/06/29 00:56:07;;;;;;;;;;;;;;;;;;5064391;28;20303;-90
2022/06/29 00:58:33;;;;;;;;;;;;;;;;;;5081216;28;19998;-89
2022/06/29 01:00:59;;;;;;;;;;;;;;;;;;5072938;28;19924;-90
2022/06/29 01:03:25;;;;;;;;;;;;;;;;;;5083778;28;19934;-88
2022/06/29 01:05:51;;;;;;;;;;;;;;;;;;5083604;28;19953;-89
2022/06/29 01:08:17;;;;;;;;;;;;;;;;;;5073761;28;19974;-90
2022/06/29 01:10:43;;;;;;;;;;;;;;;;;;5067740;28;20379;-91
2022/06/29 01:13:09;;;;;;;;;;;;;;;;;;5097717;28;20322;-90
2022/06/29 01:15:35;;;;;;;;;;;;;;;;;;5064926;28;20406;-89
2022/06/29 01:18:01;;;;;;;;;;;;;;;;;;5082558;28;20286;-90
2022/06/29 01:20:27;;;;;;;;;;;;;;;;;;5062878;28;20383;-88
2022/06/29 01:22:53;;;;;;;;;;;;;;;;;;5063569;28;19971;-90
2022/06/29 01:25:19;;;;;;;;;;;;;;;;;;5084635;28;19924;-89
2022/06/29 01:27:45;;;;;;;;;;;;;;;;;;5067300;28;19928;-89
2022/06/29 01:30:11;;;;;;;;;;;;;;;;;;5060267;28;19928;-89
2022/06/29 01:32:40;;;;;;;;;;;;;;;;;;5084968;28;20382;-89
2022/06/29 01:35:06;;;;;;;;;;;;;;;;;;5062292;28;19924;-88
2022/06/29 01:37:32;;;;;;;;;;;;;;;;;;5083174;28;21097;-88
2022/06/29 01:39:58;;;;;;;;;;;;;;;;;;5074885;28;19924;-89
2022/06/29 01:42:24;;;;;;;;;;;;;;;;;;5071769;28;19925;-89
2022/06/29 01:44:50;;;;;;;;;;;;;;;;;;5101282;28;19932;-89
2022/06/29 01:47:16;;;;;;;;;;;;;;;;;;5105251;28;19942;-90
2022/06/29 01:49:42;;;;;;;;;;;;;;;;;;5129149;27;19935;-89
2022/06/29 01:52:08;;;;;;;;;;;;;;;;;;5101555;28;19924;-90
2022/06/29 01:54:34;;;;;;;;;;;;;;;;;;5081285;28;20006;-90
2022/06/29 01:56:59;;;;;;;;;;;;;;;;;;5081847;28;19930;-90
2022/06/29 01:59:25;;;;;;;;;;;;;;;;;;5109917;28;19928;-90
2022/06/29 02:01:51;;;;;;;;;;;;;;;;;;5081504;28;19924;-92
2022/06/29 02:04:17;;;;;;;;;;;;;;;;;;5102305;28;20015;-90
2022/06/29 02:06:43;;;;;;;;;;;;;;;;;;5107087;28;19924;-90
2022/06/29 02:09:09;;;;;;;;;;;;;;;;;;5088319;28;19930;-90
2022/06/29 02:11:35;;;;;;;;;;;;;;;;;;5104178;28;20007;-91
2022/06/29 02:14:01;;;;;;;;;;;;;;;;;;5096616;28;19947;-89
2022/06/29 02:16:27;;;;;;;;;;;;;;;;;;5070833;28;20018;-89
2022/06/29 02:18:53;;;;;;;;;;;;;;;;;;5082821;28;19939;-90
2022/06/29 02:21:19;;;;;;;;;;;;;;;;;;5083201;28;20379;-90
2022/06/29 02:23:45;;;;;;;;;;;;;;;;;;5102039;28;19928;-89
2022/06/29 02:26:11;;;;;;;;;;;;;;;;;;5093944;27;20418;-90
2022/06/29 02:28:37;;;;;;;;;;;;;;;;;;5100604;28;19924;-89
2022/06/29 02:36:33;;;;;;;;;;;;;;;;;;5114252;27;19931;-89
2022/06/29 02:38:59;;;;;;;;;;;;;;;;;;5102912;28;19924;-89
2022/06/29 02:41:25;;;;;;;;;;;;;;;;;;5095048;27;19935;-89
2022/06/29 02:43:51;;;;;;;;;;;;;;;;;;5104040;28;20291;-89
2022/06/29 02:46:17;;;;;;;;;;;;;;;;;;5072570;27;19948;-89
2022/06/29 02:48:43;;;;;;;;;;;;;;;;;;5092686;27;19930;-89
2022/06/29 02:51:09;;;;;;;;;;;;;;;;;;5103000;28;19924;-90
2022/06/29 02:53:35;;;;;;;;;;;;;;;;;;5105617;28;19943;-89
2022/06/29 02:56:01;;;;;;;;;;;;;;;;;;5097894;28;19924;-90
2022/06/29 02:58:27;;;;;;;;;;;;;;;;;;5096164;28;19924;-90
2022/06/29 03:00:53;;;;;;;;;;;;;;;;;;5103544;28;19958;-91
2022/06/29 03:03:19;;;;;;;;;;;;;;;;;;5096179;28;19924;-90
2022/06/29 03:05:45;;;;;;;;;;;;;;;;;;5094925;28;19963;-90
2022/06/29 03:08:10;;;;;;;;;;;;;;;;;;5100926;28;19935;-89
2022/06/29 03:10:36;;;;;;;;;;;;;;;;;;5081401;28;19924;-89
2022/06/29 03:13:02;;;;;;;;;;;;;;;;;;5078156;28;19931;-90
2022/06/29 03:15:28;;;;;;;;;;;;;;;;;;5101509;28;20405;-89
2022/06/29 03:17:54;;;;;;;;;;;;;;;;;;5097901;28;19924;-91
2022/06/29 03:20:20;;;;;;;;;;;;;;;;;;5096767;28;20248;-90
2022/06/29 03:22:46;;;;;;;;;;;;;;;;;;5105849;28;19923;-90
2022/06/29 03:25:12;;;;;;;;;;;;;;;;;;5094006;28;19978;-91
2022/06/29 03:27:38;;;;;;;;;;;;;;;;;;5100985;28;19927;-90
2022/06/29 03:30:04;;;;;;;;;;;;;;;;;;5100750;28;19955;-91
2022/06/29 03:32:30;;;;;;;;;;;;;;;;;;5098812;28;20416;-90
2022/06/29 03:34:56;;;;;;;;;;;;;;;;;;5096835;28;19975;-90
2022/06/29 03:37:22;;;;;;;;;;;;;;;;;;5066128;28;19972;-90
2022/06/29 03:39:48;;;;;;;;;;;;;;;;;;5062115;28;19928;-90
2022/06/29 03:42:14;;;;;;;;;;;;;;;;;;5097965;28;19931;-90
2022/06/29 03:44:40;;;;;;;;;;;;;;;;;;5074543;28;19939;-90
2022/06/29 03:47:07;;;;;;;;;;;;;;;;;;5093270;28;19924;-91
2022/06/29 03:49:33;;;;;;;;;;;;;;;;;;5097447;28;19935;-90
2022/06/29 03:51:59;;;;;;;;;;;;;;;;;;5081100;28;19931;-91
2022/06/29 03:54:25;;;;;;;;;;;;;;;;;;5066302;28;19974;-92
2022/06/29 03:56:51;;;;;;;;;;;;;;;;;;5096538;28;20054;-94
2022/06/29 03:59:17;;;;;;;;;;;;;;;;;;5078811;28;19932;-94
2022/06/29 04:01:43;;;;;;;;;;;;;;;;;;5079888;28;19930;-91
2022/06/29 04:04:09;;;;;;;;;;;;;;;;;;5083256;28;19932;-92
2022/06/29 04:06:35;;;;;;;;;;;;;;;;;;5093363;28;19928;-95
2022/06/29 04:09:01;;;;;;;;;;;;;;;;;;5084532;28;19924;-83
2022/06/29 04:14:11;;;;;;;;;;;;;;;;;;5113770;27;19967;-82
2022/06/29 04:16:37;;;;;;;;;;;;;;;;;;5092871;28;19979;-89
2022/06/29 04:19:03;;;;;;;;;;;;;;;;;;5097461;28;19970;-90
2022/06/29 04:21:29;;;;;;;;;;;;;;;;;;5098026;28;19966;-86
2022/06/29 04:23:55;;;;;;;;;;;;;;;;;;5118697;28;19975;-85
2022/06/29 04:26:21;;;;;;;;;;;;;;;;;;5093820;28;19938;-83
2022/06/29 04:28:47;;;;;;;;;;;;;;;;;;5079424;28;19925;-88
2022/06/29 04:31:13;;;;;;;;;;;;;;;;;;5095355;28;19949;-87
2022/06/29 04:33:39;;;;;;;;;;;;;;;;;;5116597;28;19928;-92
2022/06/29 04:36:05;;;;;;;;;;;;;;;;;;5095814;28;20019;-90
2022/06/29 04:38:31;;;;;;;;;;;;;;;;;;5068866;28;19931;-86
2022/06/29 04:40:59;;;;;;;;;;;;;;;;;;5099839;28;19928;-92
2022/06/29 04:43:27;;;;;;;;;;;;;;;;;;5084020;28;19928;-82
2022/06/29 04:48:37;;;;;;;;;;;;;;;;;;5082965;28;20425;-87
2022/06/29 04:51:03;;;;;;;;;;;;;;;;;;5076494;28;19924;-88
2022/06/29 04:53:29;;;;;;;;;;;;;;;;;;5083118;28;19954;-88
2022/06/29 04:55:55;;;;;;;;;;;;;;;;;;5061686;28;19928;-87
2022/06/29 04:58:21;;;;;;;;;;;;;;;;;;5077927;28;19932;-86
2022/06/29 05:00:47;;;;;;;;;;;;;;;;;;5117193;27;20041;-84
2022/06/29 05:03:13;;;;;;;;;;;;;;;;;;5080141;28;20003;-88
2022/06/29 05:05:39;;;;;;;;;;;;;;;;;;5064276;28;19933;-86
2022/06/29 05:08:05;;;;;;;;;;;;;;;;;;5074044;28;19928;-88
2022/06/29 05:10:31;;;;;;;;;;;;;;;;;;5080516;28;20010;-88
2022/06/29 05:12:57;;;;;;;;;;;;;;;;;;5084300;28;19932;-89
2022/06/29 05:15:23;;;;;;;;;;;;;;;;;;5082171;28;19935;-86
2022/06/29 05:17:49;;;;;;;;;;;;;;;;;;5080297;28;19924;-85
2022/06/29 05:20:15;;;;;;;;;;;;;;;;;;5060030;28;19924;-85
2022/06/29 05:22:41;;;;;;;;;;;;;;;;;;5067798;28;19924;-85
2022/06/29 05:25:07;;;;;;;;;;;;;;;;;;5085073;28;19924;-84
2022/06/29 05:27:33;;;;;;;;;;;;;;;;;;5057878;28;20019;-83
2022/06/29 05:29:59;;;;;;;;;;;;;;;;;;5091410;28;19925;-84
2022/06/29 05:32:25;;;;;;;;;;;;;;;;;;5090858;28;19924;-84
2022/06/29 05:34:51;;;;;;;;;;;;;;;;;;5074338;28;19932;-86
2022/06/29 05:37:17;;;;;;;;;;;;;;;;;;5085037;28;19936;-85
2022/06/29 05:39:44;;;;;;;;;;;;;;;;;;5086027;28;19977;-84
2022/06/29 05:42:10;;;;;;;;;;;;;;;;;;5090635;28;20375;-84
2022/06/29 05:44:36;;;;;;;;;;;;;;;;;;5067723;28;20102;-85
2022/06/29 05:47:03;;;;;;;;;;;;;;;;;;5094421;28;20016;-86
2022/06/29 05:49:29;;;;;;;;;;;;;;;;;;5080057;28;19924;-85
2022/06/29 05:51:55;;;;;;;;;;;;;;;;;;5104347;28;20398;-85
2022/06/29 05:54:21;;;;;;;;;;;;;;;;;;5075492;28;19931;-85
2022/06/29 05:56:47;;;;;;;;;;;;;;;;;;5077600;28;20411;-84
2022/06/29 05:59:13;;;;;;;;;;;;;;;;;;5106282;28;19924;-85
2022/06/29 06:01:39;;;;;;;;;;;;;;;;;;5076595;28;20290;-85
2022/06/29 06:04:05;;;;;;;;;;;;;;;;;;5094148;28;20019;-85
2022/06/29 06:06:31;;;;;;;;;;;;;;;;;;5079658;28;19946;-84
2022/06/29 06:08:57;;;;;;;;;;;;;;;;;;5093986;28;20015;-85
2022/06/29 06:11:23;;;;;;;;;;;;;;;;;;5076827;28;19970;-85
2022/06/29 06:13:49;;;;;;;;;;;;;;;;;;5093850;28;19924;-85
2022/06/29 06:16:14;;;;;;;;;;;;;;;;;;5093917;28;19931;-87
2022/06/29 06:18:40;;;;;;;;;;;;;;;;;;5076592;28;19975;-85
2022/06/29 06:21:06;;;;;;;;;;;;;;;;;;5076023;28;19924;-86
2022/06/29 06:23:32;;;;;;;;;;;;;;;;;;5074507;28;20374;-84
2022/06/29 06:25:58;;;;;;;;;;;;;;;;;;5092515;28;20359;-84
2022/06/29 06:28:24;;;;;;;;;;;;;;;;;;5075611;28;19924;-84
2022/06/29 06:30:50;;;;;;;;;;;;;;;;;;5079648;28;20026;-85
2022/06/29 06:33:16;;;;;;;;;;;;;;;;;;5095101;28;20393;-85
2022/06/29 06:35:42;;;;;;;;;;;;;;;;;;5059560;28;19931;-84
2022/06/29 06:38:08;;;;;;;;;;;;;;;;;;5074594;28;19997;-86
2022/06/29 06:43:19;;;;;;;;;;;;;;;;;;5110013;28;19931;-86
2022/06/29 06:45:45;;;;;;;;;;;;;;;;;;5075856;28;19965;-86
2022/06/29 06:48:11;;;;;;;;;;;;;;;;;;5092824;28;19986;-86
2022/06/29 06:50:37;;;;;;;;;;;;;;;;;;5109974;28;19933;-85
2022/06/29 06:53:03;;;;;;;;;;;;;;;;;;5071843;28;19931;-85
2022/06/29 06:55:28;;;;;;;;;;;;;;;;;;5092734;28;19969;-85
2022/06/29 06:57:54;;;;;;;;;;;;;;;;;;5087361;28;20012;-85
2022/06/29 07:00:20;;;;;;;;;;;;;;;;;;5105826;28;19924;-86
2022/06/29 07:02:46;;;;;;;;;;;;;;;;;;5092726;28;20058;-86
2022/06/29 07:05:12;;;;;;;;;;;;;;;;;;5075554;28;19930;-85
2022/06/29 07:07:39;;;;;;;;;;;;;;;;;;5073023;28;20393;-85
2022/06/29 07:10:05;;;;;;;;;;;;;;;;;;5075874;28;19924;-85
2022/06/29 07:12:31;;;;;;;;;;;;;;;;;;5068305;28;19930;-86
2022/06/29 07:14:57;;;;;;;;;;;;;;;;;;5118576;27;20010;-85
2022/06/29 07:17:23;;;;;;;;;;;;;;;;;;5079040;28;19924;-87
2022/06/29 07:19:49;;;;;;;;;;;;;;;;;;5109754;28;19928;-86
2022/06/29 07:22:15;;;;;;;;;;;;;;;;;;5058951;28;19977;-86
2022/06/29 07:24:41;;;;;;;;;;;;;;;;;;5059581;28;19924;-87
2022/06/29 07:27:07;;;;;;;;;;;;;;;;;;5081526;28;19924;-88
2022/06/29 07:29:33;;;;;;;;;;;;;;;;;;5092377;28;19931;-86
2022/06/29 07:31:58;;;;;;;;;;;;;;;;;;5063498;28;20401;-86
2022/06/29 07:34:24;;;;;;;;;;;;;;;;;;5075581;28;20248;-86
2022/06/29 07:36:50;;;;;;;;;;;;;;;;;;5089783;28;20442;-87
2022/06/29 07:39:16;;;;;;;;;;;;;;;;;;5071856;28;19931;-86
2022/06/29 07:41:42;;;;;;;;;;;;;;;;;;5081707;28;19924;-86
2022/06/29 07:44:08;;;;;;;;;;;;;;;;;;5079419;28;19924;-87
2022/06/29 07:46:36;;;;;;;;;;;;;;;;;;5090847;28;20396;-87
2022/06/29 07:49:02;;;;;;;;;;;;;;;;;;5073792;28;20028;-86
2022/06/29 07:51:28;;;;;;;;;;;;;;;;;;5101015;28;19928;-87
2022/06/29 07:53:54;;;;;;;;;;;;;;;;;;5089223;28;20428;-87
2022/06/29 07:56:20;;;;;;;;;;;;;;;;;;5075154;28;20389;-87
2022/06/29 07:58:46;;;;;;;;;;;;;;;;;;5085546;28;20418;-87
2022/06/29 08:01:12;;;;;;;;;;;;;;;;;;5090836;28;19927;-86
2022/06/29 08:03:38;;;;;;;;;;;;;;;;;;5098965;28;19924;-87
2022/06/29 08:06:05;;;;;;;;;;;;;;;;;;5058268;28;20262;-86
2022/06/29 08:08:31;;;;;;;;;;;;;;;;;;5092486;28;19924;-86
2022/06/29 08:10:57;;;;;;;;;;;;;;;;;;5071689;28;19931;-87
2022/06/29 08:13:23;;;;;;;;;;;;;;;;;;5074961;28;19924;-87
2022/06/29 08:15:49;;;;;;;;;;;;;;;;;;5094359;28;19931;-87
2022/06/29 08:18:15;;;;;;;;;;;;;;;;;;5091234;28;19924;-87
2022/06/29 08:20:41;;;;;;;;;;;;;;;;;;5091953;28;19924;-87
2022/06/29 08:23:07;;;;;;;;;;;;;;;;;;5079209;28;20037;-86
2022/06/29 08:25:33;;;;;;;;;;;;;;;;;;5092085;28;20372;-85
2022/06/29 08:28:01;;;;;;;;;;;;;;;;;;5066135;28;20356;-86
2022/06/29 08:30:26;;;;;;;;;;;;;;;;;;5091856;28;20290;-86
2022/06/29 08:32:52;;;;;;;;;;;;;;;;;;5091588;28;19928;-86
2022/06/29 08:35:18;;;;;;;;;;;;;;;;;;5108789;28;20360;-87
2022/06/29 08:37:44;;;;;;;;;;;;;;;;;;5097319;28;19988;-87
2022/06/29 08:40:10;;;;;;;;;;;;;;;;;;5097199;28;19935;-87
2022/06/29 08:42:36;;;;;;;;;;;;;;;;;;5078225;28;19924;-85
2022/06/29 08:45:02;;;;;;;;;;;;;;;;;;5069362;28;20393;-86
2022/06/29 08:47:28;;;;;;;;;;;;;;;;;;5075742;28;20006;-85
2022/06/29 08:49:54;;;;;;;;;;;;;;;;;;5063581;28;20353;-85
2022/06/29 08:52:20;;;;;;;;;;;;;;;;;;5091582;28;20330;-85
2022/06/29 08:54:48;;;;;;;;;;;;;;;;;;5061705;28;20363;-85
2022/06/29 08:57:14;;;;;;;;;;;;;;;;;;5102244;28;19978;-84
2022/06/29 08:59:40;;;;;;;;;;;;;;;;;;5101296;28;19959;-85
2022/06/29 09:02:06;;;;;;;;;;;;;;;;;;5081769;28;19928;-84
2022/06/29 09:04:32;;;;;;;;;;;;;;;;;;5077540;28;19930;-84
2022/06/29 09:06:58;;;;;;;;;;;;;;;;;;5057133;28;20336;-85
2022/06/29 09:09:24;;;;;;;;;;;;;;;;;;5091213;28;19925;-85
2022/06/29 09:11:53;;;;;;;;;;;;;;;;;;5060413;28;20013;-84
2022/06/29 09:14:19;;;;;;;;;;;;;;;;;;5108078;28;19924;-85
2022/06/29 09:16:45;;;;;;;;;;;;;;;;;;5073966;28;20022;-85
2022/06/29 09:19:11;;;;;;;;;;;;;;;;;;5058177;28;20006;-85
2022/06/29 09:21:37;;;;;;;;;;;;;;;;;;5073397;28;19924;-84
2022/06/29 09:24:03;;;;;;;;;;;;;;;;;;5057036;28;19931;-83
2022/06/29 09:26:29;;;;;;;;;;;;;;;;;;5089191;28;19924;-83
2022/06/29 09:28:55;;;;;;;;;;;;;;;;;;5090597;28;19982;-84
2022/06/29 09:31:21;;;;;;;;;;;;;;;;;;5093752;28;19924;-84
2022/06/29 09:33:47;;;;;;;;;;;;;;;;;;5077443;28;19931;-84
2022/06/29 09:36:16;;;;;;;;;;;;;;;;;;5081761;28;19924;-84
2022/06/29 09:38:42;;;;;;;;;;;;;;;;;;5109313;28;19977;-84
2022/06/29 09:41:08;;;;;;;;;;;;;;;;;;5071147;28;19928;-84
2022/06/29 09:43:34;;;;;;;;;;;;;;;;;;5111090;27;19924;-84
2022/06/29 09:46:00;;;;;;;;;;;;;;;;;;5063904;28;20353;-84
2022/06/29 09:48:26;;;;;;;;;;;;;;;;;;5075118;28;19931;-85
2022/06/29 09:50:52;;;;;;;;;;;;;;;;;;5098163;28;19923;-84
2022/06/29 09:53:18;;;;;;;;;;;;;;;;;;5096283;28;19923;-83
2022/06/29 09:55:44;;;;;;;;;;;;;;;;;;5089986;28;19924;-84
2022/06/29 09:58:10;;;;;;;;;;;;;;;;;;5094056;28;19927;-83
2022/06/29 10:03:21;;;;;;;;;;;;;;;;;;5121411;27;20272;-83
2022/06/29 10:06:04;;;;;;;;;;;;;;;;;;5087882;28;19924;-84
2022/06/29 10:08:30;;;;;;;;;;;;;;;;;;5094097;28;20469;-83
2022/06/29 10:10:56;;;;;;;;;;;;;;;;;;5082996;28;19928;-84
2022/06/29 10:13:41;;;;;;;;;;;;;;;;;;5094352;28;19931;-84
2022/06/29 10:16:07;;;;;;;;;;;;;;;;;;5084175;28;19924;-82
2022/06/29 10:18:34;;;;;;;;;;;;;;;;;;5076994;28;19924;-83
2022/06/29 10:21:00;;;;;;;;;;;;;;;;;;5076206;28;19924;-83
2022/06/29 10:23:26;;;;;;;;;;;;;;;;;;5083504;28;20402;-83
2022/06/29 10:25:52;;;;;;;;;;;;;;;;;;5060061;28;20398;-84
2022/06/29 10:28:20;;;;;;;;;;;;;;;;;;5076671;28;20347;-84
2022/06/29 10:30:46;;;;;;;;;;;;;;;;;;5096451;28;20468;-85
2022/06/29 10:33:12;;;;;;;;;;;;;;;;;;5079703;28;19928;-83
2022/06/29 10:35:38;;;;;;;;;;;;;;;;;;5066315;28;19977;-83
2022/06/29 10:38:05;;;;;;;;;;;;;;;;;;5102437;28;19924;-83
2022/06/29 10:40:31;;;;;;;;;;;;;;;;;;5097416;28;19977;-84
2022/06/29 10:43:09;;;;;;;;;;;;;;;;;;5101707;28;19924;-84
2022/06/29 10:45:35;;;;;;;;;;;;;;;;;;5076280;28;19974;-84
2022/06/29 10:48:05;;;;;;;;;;;;;;;;;;5060068;28;20047;-84
2022/06/29 10:50:32;;;;;;;;;;;;;;;;;;5093504;28;19975;-84
2022/06/29 10:52:58;;;;;;;;;;;;;;;;;;5076180;28;20015;-84
2022/06/29 10:55:24;;;;;;;;;;;;;;;;;;5076399;28;20003;-83
2022/06/29 10:57:50;;;;;;;;;;;;;;;;;;5068372;28;19924;-84
2022/06/29 11:00:16;;;;;;;;;;;;;;;;;;5111181;28;19934;-84
2022/06/29 11:02:41;;;;;;;;;;;;;;;;;;5093057;28;19935;-84
2022/06/29 11:05:07;;;;;;;;;;;;;;;;;;5074334;28;19924;-84
2022/06/29 11:13:03;;;;;;;;;;;;;;;;;;5109682;27;19990;-83
2022/06/29 11:15:48;;;;;;;;;;;;;;;;;;5075965;28;19924;-82
2022/06/29 11:18:14;;;;;;;;;;;;;;;;;;5075437;28;19928;-84
2022/06/29 11:20:40;;;;;;;;;;;;;;;;;;5063976;28;20382;-84
2022/06/29 11:23:07;;;;;;;;;;;;;;;;;;5092351;28;19928;-83
2022/06/29 11:25:33;;;;;;;;;;;;;;;;;;5075883;28;19932;-82
2022/06/29 11:27:59;;;;;;;;;;;;;;;;;;5075023;28;19928;-83
2022/06/29 11:30:25;;;;;;;;;;;;;;;;;;5064757;28;19928;-83
2022/06/29 11:32:51;;;;;;;;;;;;;;;;;;5084433;28;20402;-85
2022/06/29 11:35:17;;;;;;;;;;;;;;;;;;5072918;28;19971;-84
2022/06/29 11:37:43;;;;;;;;;;;;;;;;;;5070261;28;19989;-83
2022/06/29 11:40:09;;;;;;;;;;;;;;;;;;5077562;28;19932;-84
2022/06/29 11:45:19;;;;;;;;;;;;;;;;;;5075226;28;19946;-84
2022/06/29 11:47:45;;;;;;;;;;;;;;;;;;5074949;28;20439;-86
2022/06/29 11:50:11;;;;;;;;;;;;;;;;;;5091951;28;19928;-84
2022/06/29 11:52:37;;;;;;;;;;;;;;;;;;5074716;28;19931;-84
2022/06/29 11:55:03;;;;;;;;;;;;;;;;;;5074239;28;19950;-84
2022/06/29 11:57:29;;;;;;;;;;;;;;;;;;5074618;28;19928;-83
2022/06/29 11:59:55;;;;;;;;;;;;;;;;;;5094258;28;20272;-84
2022/06/29 12:02:22;;;;;;;;;;;;;;;;;;5088770;28;19967;-85
2022/06/29 12:04:48;;;;;;;;;;;;;;;;;;5058148;28;19967;-84
2022/06/29 12:07:14;;;;;;;;;;;;;;;;;;5072185;28;19928;-84
2022/06/29 12:09:40;;;;;;;;;;;;;;;;;;5092020;28;19976;-83
2022/06/29 12:12:06;;;;;;;;;;;;;;;;;;5064818;28;19928;-83
2022/06/29 12:14:32;;;;;;;;;;;;;;;;;;5076242;28;19931;-83
2022/06/29 12:16:58;;;;;;;;;;;;;;;;;;5084821;28;19947;-84
2022/06/29 12:19:24;;;;;;;;;;;;;;;;;;5058019;28;19931;-84
2022/06/29 12:21:50;;;;;;;;;;;;;;;;;;5078582;28;19924;-84
2022/06/29 12:24:16;;;;;;;;;;;;;;;;;;5091429;28;19939;-85
2022/06/29 12:26:43;;;;;;;;;;;;;;;;;;5089504;28;20276;-85
2022/06/29 12:29:09;;;;;;;;;;;;;;;;;;5066081;28;19947;-84
2022/06/29 12:31:34;;;;;;;;;;;;;;;;;;5082553;28;19927;-83
2022/06/29 12:34:00;;;;;;;;;;;;;;;;;;5073753;28;20422;-86
2022/06/29 12:36:26;;;;;;;;;;;;;;;;;;5091851;28;20386;-84
2022/06/29 12:38:52;;;;;;;;;;;;;;;;;;5121249;28;19932;-84
2022/06/29 12:41:18;;;;;;;;;;;;;;;;;;5065921;28;19931;-85
2022/06/29 12:43:44;;;;;;;;;;;;;;;;;;5104440;28;19940;-85
2022/06/29 12:46:11;;;;;;;;;;;;;;;;;;5080104;28;20015;-84
2022/06/29 12:48:37;;;;;;;;;;;;;;;;;;5088090;28;19970;-86
2022/06/29 12:51:03;;;;;;;;;;;;;;;;;;5087851;28;19924;-84
2022/06/29 12:53:29;;;;;;;;;;;;;;;;;;5088336;28;19924;-85
2022/06/29 12:55:55;;;;;;;;;;;;;;;;;;5088628;28;19925;-84
2022/06/29 12:58:21;;;;;;;;;;;;;;;;;;5070637;28;20386;-84
2022/06/29 13:00:47;;;;;;;;;;;;;;;;;;5088484;28;19971;-84
2022/06/29 13:03:13;;;;;;;;;;;;;;;;;;5070635;28;19924;-84
2022/06/29 13:05:39;;;;;;;;;;;;;;;;;;5082581;28;19924;-86
2022/06/29 13:08:05;;;;;;;;;;;;;;;;;;5074656;28;19930;-83
2022/06/29 13:10:31;;;;;;;;;;;;;;;;;;5092066;28;19924;-84
2022/06/29 13:12:57;;;;;;;;;;;;;;;;;;5076398;28;20351;-84
2022/06/29 13:15:23;;;;;;;;;;;;;;;;;;5091950;28;19924;-84
2022/06/29 13:17:49;;;;;;;;;;;;;;;;;;5091795;28;19946;-84
2022/06/29 13:20:15;;;;;;;;;;;;;;;;;;5091316;28;19960;-85
2022/06/29 13:22:41;;;;;;;;;;;;;;;;;;5088054;28;19924;-84
2022/06/29 13:25:07;;;;;;;;;;;;;;;;;;5076206;28;20329;-85
2022/06/29 13:27:33;;;;;;;;;;;;;;;;;;5078587;28;19928;-83
2022/06/29 13:29:59;;;;;;;;;;;;;;;;;;5087255;28;19953;-84
2022/06/29 13:32:25;;;;;;;;;;;;;;;;;;5065052;28;19924;-83
2022/06/29 13:34:51;;;;;;;;;;;;;;;;;;5074379;28;20020;-84
2022/06/29 13:37:17;;;;;;;;;;;;;;;;;;5066034;28;19928;-84
2022/06/29 13:39:43;;;;;;;;;;;;;;;;;;5090615;28;20011;-84
2022/06/29 13:42:09;;;;;;;;;;;;;;;;;;5107558;27;19924;-85
2022/06/29 13:44:35;;;;;;;;;;;;;;;;;;5079200;28;20354;-84
2022/06/29 13:47:01;;;;;;;;;;;;;;;;;;5093054;28;19924;-85
2022/06/29 13:49:27;;;;;;;;;;;;;;;;;;5077606;28;20046;-85
2022/06/29 13:51:53;;;;;;;;;;;;;;;;;;5082858;28;19928;-85
2022/06/29 13:54:19;;;;;;;;;;;;;;;;;;5076735;28;19924;-85
2022/06/29 13:56:45;;;;;;;;;;;;;;;;;;5077491;28;19931;-84
2022/06/29 13:59:11;;;;;;;;;;;;;;;;;;5094294;28;19951;-84
2022/06/29 14:01:37;;;;;;;;;;;;;;;;;;5073901;28;19946;-84
2022/06/29 14:04:03;;;;;;;;;;;;;;;;;;5096977;28;19924;-84
2022/06/29 14:06:29;;;;;;;;;;;;;;;;;;5086250;28;19930;-83
2022/06/29 14:08:55;;;;;;;;;;;;;;;;;;5093957;28;20023;-85
2022/06/29 14:11:21;;;;;;;;;;;;;;;;;;5060898;28;19924;-84
2022/06/29 14:13:47;;;;;;;;;;;;;;;;;;5094103;28;19924;-85
2022/06/29 14:16:13;;;;;;;;;;;;;;;;;;5092160;28;19924;-85
2022/06/29 14:18:39;;;;;;;;;;;;;;;;;;5096826;28;20283;-83
2022/06/29 14:21:05;;;;;;;;;;;;;;;;;;5079990;28;19931;-84
2022/06/29 14:23:31;;;;;;;;;;;;;;;;;;5078423;28;19928;-83
2022/06/29 14:25:56;;;;;;;;;;;;;;;;;;5105136;28;20010;-84
2022/06/29 14:28:22;;;;;;;;;;;;;;;;;;5060010;28;19979;-84
2022/06/29 14:30:48;;;;;;;;;;;;;;;;;;5093899;28;20371;-84
2022/06/29 14:33:14;;;;;;;;;;;;;;;;;;5109077;28;19924;-84
2022/06/29 14:35:40;;;;;;;;;;;;;;;;;;5110539;27;19924;-83
2022/06/29 14:38:06;;;;;;;;;;;;;;;;;;5094360;28;20016;-84
2022/06/29 14:40:32;;;;;;;;;;;;;;;;;;5093558;28;20347;-83
2022/06/29 14:42:58;;;;;;;;;;;;;;;;;;5110087;28;19999;-84
2022/06/29 14:45:24;;;;;;;;;;;;;;;;;;5058818;28;19936;-84
2022/06/29 14:47:50;;;;;;;;;;;;;;;;;;5063342;28;20374;-83
2022/06/29 14:50:17;;;;;;;;;;;;;;;;;;5125691;27;20466;-84
2022/06/29 14:52:43;;;;;;;;;;;;;;;;;;5084016;28;19974;-83
2022/06/29 14:55:09;;;;;;;;;;;;;;;;;;5100721;28;19967;-84
2022/06/29 14:57:35;;;;;;;;;;;;;;;;;;5081915;28;19924;-83
2022/06/29 15:00:01;;;;;;;;;;;;;;;;;;5091838;28;19924;-84
2022/06/29 15:02:27;;;;;;;;;;;;;;;;;;5092491;28;19930;-84
2022/06/29 15:04:53;;;;;;;;;;;;;;;;;;5074501;28;19932;-84
2022/06/29 15:07:19;;;;;;;;;;;;;;;;;;5075899;28;19924;-83
2022/06/29 15:09:45;;;;;;;;;;;;;;;;;;5059437;28;20359;-83
2022/06/29 15:12:11;;;;;;;;;;;;;;;;;;5067690;28;20004;-84
2022/06/29 15:14:37;;;;;;;;;;;;;;;;;;5075501;28;20363;-83
2022/06/29 15:17:03;;;;;;;;;;;;;;;;;;5092308;28;19932;-83
2022/06/29 15:19:30;;;;;;;;;;;;;;;;;;5075190;28;19931;-83
2022/06/29 15:21:56;;;;;;;;;;;;;;;;;;5075831;28;20402;-83
2022/06/29 15:24:25;;;;;;;;;;;;;;;;;;5074842;28;20026;-84
2022/06/29 15:26:51;;;;;;;;;;;;;;;;;;5075670;28;20418;-84
2022/06/29 15:29:17;;;;;;;;;;;;;;;;;;5060077;28;19928;-84
2022/06/29 15:31:43;;;;;;;;;;;;;;;;;;5089144;28;19973;-83
2022/06/29 15:39:38;;;;;;;;;;;;;;;;;;5075760;28;19931;-83
2022/06/29 15:42:05;;;;;;;;;;;;;;;;;;5058919;28;19924;-84
2022/06/29 15:44:31;;;;;;;;;;;;;;;;;;5071167;28;19977;-84
2022/06/29 15:46:56;;;;;;;;;;;;;;;;;;5088939;28;19924;-85
2022/06/29 15:49:22;;;;;;;;;;;;;;;;;;5071694;28;19929;-84
2022/06/29 15:51:48;;;;;;;;;;;;;;;;;;5074305;28;19931;-83
2022/06/29 15:56:59;;;;;;;;;;;;;;;;;;5071659;28;20314;-84
2022/06/29 15:59:25;;;;;;;;;;;;;;;;;;5097787;28;19931;-83
2022/06/29 16:01:51;;;;;;;;;;;;;;;;;;5071951;28;20352;-85
2022/06/29 16:04:17;;;;;;;;;;;;;;;;;;5080562;28;20368;-84
2022/06/29 16:06:43;;;;;;;;;;;;;;;;;;5062125;28;20322;-84
2022/06/29 16:09:09;;;;;;;;;;;;;;;;;;5088113;28;19947;-83
2022/06/29 16:14:19;;;;;;;;;;;;;;;;;;5071440;28;19982;-85
2022/06/29 16:16:45;;;;;;;;;;;;;;;;;;5081780;28;20360;-84
2022/06/29 16:19:11;;;;;;;;;;;;;;;;;;5054895;28;20291;-85
2022/06/29 16:21:37;;;;;;;;;;;;;;;;;;5107509;28;20307;-83
2022/06/29 16:24:03;;;;;;;;;;;;;;;;;;5067980;28;19931;-84
2022/06/29 16:26:29;;;;;;;;;;;;;;;;;;5071365;28;19979;-83
2022/06/29 16:28:55;;;;;;;;;;;;;;;;;;5105573;28;19924;-84
2022/06/29 16:31:21;;;;;;;;;;;;;;;;;;5079881;28;19928;-86
2022/06/29 16:33:47;;;;;;;;;;;;;;;;;;5071780;28;20595;-85
2022/06/29 16:36:13;;;;;;;;;;;;;;;;;;5071680;28;19931;-84
2022/06/29 16:38:39;;;;;;;;;;;;;;;;;;5091667;28;19931;-84
2022/06/29 16:41:05;;;;;;;;;;;;;;;;;;5092151;28;19925;-84
2022/06/29 16:43:31;;;;;;;;;;;;;;;;;;5074557;28;19975;-84
2022/06/29 16:45:57;;;;;;;;;;;;;;;;;;5091634;28;19924;-85
2022/06/29 16:48:23;;;;;;;;;;;;;;;;;;5092037;28;19925;-85
2022/06/29 16:50:48;;;;;;;;;;;;;;;;;;5109514;27;19976;-83
2022/06/29 16:53:14;;;;;;;;;;;;;;;;;;5075065;28;19929;-84
2022/06/29 16:55:40;;;;;;;;;;;;;;;;;;5092291;28;19924;-84
2022/06/29 16:58:08;;;;;;;;;;;;;;;;;;5095293;28;19935;-84
2022/06/29 17:00:34;;;;;;;;;;;;;;;;;;5061502;28;19924;-84
2022/06/29 17:03:00;;;;;;;;;;;;;;;;;;5073677;28;19947;-84
2022/06/29 17:05:26;;;;;;;;;;;;;;;;;;5073582;28;19932;-84
2022/06/29 17:07:52;;;;;;;;;;;;;;;;;;5078051;28;19932;-84
2022/06/29 17:10:17;;;;;;;;;;;;;;;;;;5066409;28;19928;-85
2022/06/29 17:12:44;;;;;;;;;;;;;;;;;;5074537;28;19928;-84